The Hangar Logo

METARs in Plain English
Latest METAR information for EGVN - BRIZE NORTON

EGVN 241950Z 04005KT CAVOK 11/06 Q1016 BLU NOSIG

In plain english is....

This is a METAR report for EGVN - BRIZE NORTON .
The report was made 42 minutes ago, at 19:50 UTC.
The wind was blowing at a speed of 5 knots (5.8 miles per hour, 2.6 metres per second) from the Northeast (040°).
The visibility was greater than 6.2 miles (greater than 10 kilometres).
There were no clouds below 5,000 feet (1,524 metres).
The temperature was 11°C (52°F), a dew point of 6°C (43°F) and a relative humidity of 71.2%.
The altimeter setting (airfield QNH) was 1,016 hPa (30.00 inHg).
Other remarks BLU NOSIG.

UK Mainland

Ireland

Channel Islands

France

Other



Enter
Tel: 07092 887559 - Fax: 07092 183262

Terms of Use | Privacy Statement
Content copyright © 1999-2012 TheHangar.co.uk. All rights reserved.
Please send your questions, comments, or bug reports to the Webmaster.